createdAt,value
2022-09-03T00:00:10.584Z,2.10
2022-09-03T00:02:45.671Z,1.75
2022-09-03T00:05:21.482Z,1.73
2022-09-03T00:07:57.512Z,2.20
2022-09-03T00:10:32.124Z,1.98
2022-09-03T00:13:04.804Z,2.08
2022-09-03T00:15:35.971Z,2.10
2022-09-03T00:18:07.633Z,1.67
2022-09-03T00:20:42.466Z,2.38
2022-09-03T00:23:15.783Z,1.80
2022-09-03T00:25:50.179Z,2.00
2022-09-03T00:28:20.764Z,1.77
2022-09-03T00:30:55.356Z,2.05
2022-09-03T00:33:27.021Z,2.08
2022-09-03T00:36:05.833Z,2.08
2022-09-03T00:38:33.807Z,2.10
2022-09-03T00:41:10.435Z,2.05
2022-09-03T00:43:56.161Z,1.95
2022-09-03T00:46:32.182Z,1.90
2022-09-03T00:49:20.970Z,1.80
2022-09-03T00:54:29.876Z,1.92
2022-09-03T00:57:13.001Z,1.90
2022-09-03T00:59:50.372Z,1.70
2022-09-03T01:02:30.039Z,1.85
2022-09-03T01:05:07.307Z,1.67
2022-09-03T01:07:49.119Z,1.73
2022-09-03T01:10:28.824Z,1.27
2022-09-03T01:13:03.277Z,1.45
2022-09-03T01:15:42.714Z,2.00
2022-09-03T01:18:21.178Z,1.50
2022-09-03T01:21:00.270Z,1.52
2022-09-03T01:24:07.482Z,1.88
2022-09-03T01:26:50.262Z,1.80
2022-09-03T01:29:26.804Z,1.73
2022-09-03T01:32:07.987Z,2.10
2022-09-03T01:34:53.049Z,1.80
2022-09-03T01:37:30.540Z,1.90
2022-09-03T01:40:08.802Z,2.03
2022-09-03T01:42:49.331Z,1.92
2022-09-03T01:45:39.203Z,1.63
2022-09-03T01:48:40.892Z,1.92
2022-09-03T01:51:18.544Z,1.98
2022-09-03T01:54:28.399Z,1.58
2022-09-03T01:57:35.902Z,1.90
2022-09-03T02:00:09.404Z,2.10
2022-09-03T02:02:39.108Z,1.70
2022-09-03T02:05:09.903Z,2.00
2022-09-03T02:07:41.790Z,1.95
2022-09-03T02:10:12.703Z,1.90
2022-09-03T02:12:43.138Z,2.22
2022-09-03T02:15:14.446Z,1.67
2022-09-03T02:17:46.635Z,2.10
2022-09-03T02:20:20.979Z,1.70
2022-09-03T02:22:50.026Z,1.88
2022-09-03T02:25:18.540Z,1.95
2022-09-03T02:27:47.223Z,2.05
2022-09-03T02:30:15.136Z,1.77
2022-09-03T02:32:44.372Z,2.20
2022-09-03T02:35:12.797Z,2.45
2022-09-03T02:37:41.707Z,1.92
2022-09-03T02:40:11.010Z,1.95
2022-09-03T02:42:39.165Z,2.65
2022-09-03T02:45:20.028Z,2.00
2022-09-03T02:47:53.308Z,2.38
2022-09-03T02:50:21.200Z,2.80
2022-09-03T02:52:49.125Z,2.42
2022-09-03T02:55:17.392Z,3.13
2022-09-03T02:57:45.271Z,3.03
2022-09-03T03:00:14.613Z,2.63
2022-09-03T03:02:43.266Z,2.70
2022-09-03T03:05:21.019Z,3.40
2022-09-03T03:07:48.954Z,3.45
2022-09-03T03:10:17.081Z,2.92
2022-09-03T03:12:45.377Z,2.85
2022-09-03T03:15:13.278Z,3.33
2022-09-03T03:17:41.129Z,3.45
2022-09-03T03:20:10.234Z,3.22
2022-09-03T03:22:39.461Z,3.45
2022-09-03T03:25:09.744Z,3.42
2022-09-03T03:27:42.179Z,3.53
2022-09-03T03:30:11.813Z,3.53
2022-09-03T03:32:40.227Z,3.50
2022-09-03T03:35:08.977Z,3.40
2022-09-03T03:37:36.890Z,3.67
2022-09-03T03:40:07.522Z,3.17
2022-09-03T03:42:35.969Z,3.70
2022-09-03T03:45:04.074Z,3.40
2022-09-03T03:47:32.077Z,3.83
2022-09-03T03:50:00.286Z,3.75
2022-09-03T03:52:29.160Z,3.85
2022-09-03T03:54:57.394Z,4.10
2022-09-03T03:57:26.735Z,3.35
2022-09-03T03:59:54.599Z,3.13
2022-09-03T04:02:22.578Z,4.38
2022-09-03T04:04:50.474Z,3.67
2022-09-03T04:07:18.440Z,2.92
2022-09-03T04:09:47.247Z,3.72
2022-09-03T04:12:15.198Z,3.05
2022-09-03T04:14:44.449Z,3.80
2022-09-03T04:17:12.286Z,3.30
2022-09-03T04:19:40.160Z,3.80
2022-09-03T04:22:08.000Z,4.70
2022-09-03T04:24:35.908Z,5.13
2022-09-03T04:27:04.043Z,4.35
2022-09-03T04:29:32.013Z,3.67
2022-09-03T04:32:19.874Z,3.63
2022-09-03T04:34:47.718Z,3.63
2022-09-03T04:37:16.473Z,4.25
2022-09-03T04:39:44.389Z,4.13
2022-09-03T04:42:12.297Z,3.92
2022-09-03T04:44:41.112Z,3.55
2022-09-03T04:47:10.366Z,4.18
2022-09-03T04:49:40.122Z,4.13
2022-09-03T04:52:08.007Z,4.10
2022-09-03T04:54:35.860Z,3.80
2022-09-03T04:57:03.771Z,4.10
2022-09-03T04:59:31.631Z,4.20
2022-09-03T05:01:59.531Z,4.38
2022-09-03T05:04:28.877Z,3.83
2022-09-03T05:06:56.736Z,4.47
2022-09-03T05:09:24.596Z,4.32
2022-09-03T05:11:52.454Z,4.18
2022-09-03T05:14:20.349Z,4.28
2022-09-03T05:16:53.098Z,5.00
2022-09-03T05:19:21.284Z,4.43
2022-09-03T05:21:50.502Z,4.28
2022-09-03T05:24:18.684Z,4.32
2022-09-03T05:26:46.839Z,4.30
2022-09-03T05:29:16.010Z,5.03
2022-09-03T05:31:43.916Z,4.53
2022-09-03T05:34:16.622Z,4.80
2022-09-03T05:36:49.806Z,4.55
2022-09-03T05:39:19.105Z,4.82
2022-09-03T05:41:47.036Z,4.38
2022-09-03T05:44:15.115Z,4.43
2022-09-03T05:46:42.975Z,4.50
2022-09-03T05:49:11.654Z,4.53
2022-09-03T05:51:40.468Z,4.20
2022-09-03T05:54:09.122Z,4.57
2022-09-03T05:56:40.026Z,4.28
2022-09-03T05:59:10.708Z,4.38
2022-09-03T06:01:40.117Z,5.03
2022-09-03T06:04:09.510Z,4.15
2022-09-03T06:06:39.233Z,4.75
2022-09-03T06:09:08.713Z,4.50
2022-09-03T06:11:39.899Z,4.70
2022-09-03T06:14:11.308Z,4.70
2022-09-03T06:16:40.868Z,4.80
2022-09-03T06:19:10.869Z,4.82
2022-09-03T06:21:42.747Z,4.47
2022-09-03T06:24:12.090Z,4.70
2022-09-03T06:26:43.029Z,4.72
2022-09-03T06:29:11.732Z,4.63
2022-09-03T06:31:40.195Z,4.20
2022-09-03T06:34:08.423Z,5.07
2022-09-03T06:36:36.285Z,4.20
2022-09-03T06:39:04.781Z,3.67
2022-09-03T06:41:35.346Z,4.30
2022-09-03T06:44:06.627Z,4.50
2022-09-03T06:46:38.712Z,3.85
2022-09-03T06:49:06.617Z,4.05
2022-09-03T06:51:36.012Z,3.90
2022-09-03T06:54:06.414Z,4.18
2022-09-03T06:56:39.879Z,4.68
2022-09-03T06:59:11.745Z,4.25
2022-09-03T07:01:43.738Z,3.92
2022-09-03T07:04:13.147Z,3.72
2022-09-03T07:06:44.278Z,4.05
2022-09-03T07:09:13.491Z,4.07
2022-09-03T07:11:47.269Z,3.60
2022-09-03T07:14:18.919Z,3.83
2022-09-03T07:16:47.403Z,3.72
2022-09-03T07:19:15.409Z,3.92
2022-09-03T07:21:48.389Z,3.55
2022-09-03T07:24:18.519Z,4.00
2022-09-03T07:26:48.564Z,3.22
2022-09-03T07:29:20.475Z,3.38
2022-09-03T07:31:51.339Z,3.80
2022-09-03T07:34:20.362Z,3.30
2022-09-03T07:36:51.275Z,3.80
2022-09-03T07:39:19.915Z,3.33
2022-09-03T07:41:48.820Z,3.47
2022-09-03T07:44:20.373Z,3.53
2022-09-03T07:46:50.864Z,3.35
2022-09-03T07:49:20.183Z,3.05
2022-09-03T07:51:50.596Z,3.13
2022-09-03T07:54:18.736Z,2.83
2022-09-03T07:56:46.781Z,3.40
2022-09-03T07:59:14.660Z,2.65
2022-09-03T08:01:43.873Z,2.78
2022-09-03T08:04:11.959Z,2.95
2022-09-03T08:06:40.480Z,2.97
2022-09-03T08:09:11.357Z,2.45
2022-09-03T08:11:41.771Z,3.00
2022-09-03T08:14:11.249Z,2.60
2022-09-03T08:16:41.838Z,2.72
2022-09-03T08:19:11.325Z,3.22
2022-09-03T08:21:41.736Z,2.35
2022-09-03T08:24:11.012Z,2.70
2022-09-03T08:26:41.879Z,2.55
2022-09-03T08:29:10.453Z,2.67
2022-09-03T08:31:38.923Z,2.28
2022-09-03T08:34:08.419Z,2.38
2022-09-03T08:36:41.222Z,2.05
2022-09-03T08:39:10.970Z,2.00
2022-09-03T08:41:55.009Z,2.28
2022-09-03T08:44:26.890Z,2.00
2022-09-03T08:47:01.290Z,2.30
2022-09-03T08:49:35.612Z,2.10
2022-09-03T08:52:08.863Z,2.10
2022-09-03T08:54:38.143Z,2.15
2022-09-03T08:57:08.687Z,2.50
2022-09-03T08:59:37.196Z,2.30
2022-09-03T09:02:18.549Z,2.45
2022-09-03T09:05:00.012Z,2.40
2022-09-03T09:07:38.406Z,2.85
2022-09-03T09:10:14.921Z,2.65
2022-09-03T09:12:49.220Z,2.03
2022-09-03T09:15:29.517Z,2.33
2022-09-03T09:18:07.355Z,2.70
2022-09-03T09:20:42.736Z,2.50
2022-09-03T09:23:15.872Z,2.85
2022-09-03T09:25:50.064Z,2.33
2022-09-03T09:28:22.631Z,2.88
2022-09-03T09:30:52.112Z,2.65
2022-09-03T09:33:21.231Z,2.78
2022-09-03T09:35:49.583Z,2.45
2022-09-03T09:38:29.567Z,2.35
2022-09-03T09:40:59.802Z,2.17
2022-09-03T09:43:27.727Z,2.42
2022-09-03T09:45:55.798Z,2.40
2022-09-03T09:48:31.459Z,2.45
2022-09-03T09:51:07.761Z,2.50
2022-09-03T09:53:37.178Z,2.50
2022-09-03T09:56:05.174Z,3.10
2022-09-03T09:58:34.747Z,2.60
2022-09-03T10:01:13.043Z,2.40
2022-09-03T10:03:50.331Z,2.95
2022-09-03T10:06:35.791Z,2.95
2022-09-03T10:09:09.565Z,2.95
2022-09-03T10:11:40.298Z,2.83
2022-09-03T10:14:15.008Z,2.92
2022-09-03T10:16:48.950Z,2.70
2022-09-03T10:19:24.527Z,3.10
2022-09-03T10:21:59.502Z,3.22
2022-09-03T10:24:40.250Z,2.17
2022-09-03T10:27:12.584Z,2.75
2022-09-03T10:29:42.396Z,2.90
2022-09-03T10:32:29.110Z,2.40
2022-09-03T10:35:15.110Z,2.78
2022-09-03T10:37:48.409Z,3.08
2022-09-03T10:40:30.765Z,2.38
2022-09-03T10:43:19.298Z,2.75
2022-09-03T10:48:45.473Z,3.20
2022-09-03T10:51:20.382Z,2.80
2022-09-03T10:54:26.570Z,2.85
2022-09-03T10:57:05.055Z,3.60
2022-09-03T10:59:59.956Z,3.22
2022-09-03T11:03:21.168Z,3.05
2022-09-03T11:05:59.999Z,3.03
2022-09-03T11:08:34.404Z,3.00
2022-09-03T11:11:11.548Z,2.85
2022-09-03T11:13:46.208Z,3.37
2022-09-03T11:16:21.520Z,2.80
2022-09-03T11:18:52.645Z,3.00
2022-09-03T11:21:23.966Z,2.95
2022-09-03T11:24:00.505Z,3.13
2022-09-03T11:26:29.227Z,3.30
2022-09-03T11:29:02.537Z,3.22
2022-09-03T11:31:40.144Z,3.92
2022-09-03T11:34:13.969Z,4.03
2022-09-03T11:36:51.173Z,3.90
2022-09-03T11:39:21.939Z,3.95
2022-09-03T11:42:00.255Z,4.40
2022-09-03T11:44:42.743Z,4.13
2022-09-03T11:47:24.022Z,3.20
2022-09-03T11:49:54.188Z,4.35
2022-09-03T11:52:29.525Z,3.63
2022-09-03T11:54:57.417Z,3.78
2022-09-03T11:57:29.883Z,4.85
2022-09-03T12:00:12.930Z,3.38
2022-09-03T12:02:47.186Z,3.72
2022-09-03T12:05:23.452Z,3.67
2022-09-03T12:08:11.586Z,3.30
2022-09-03T12:10:50.805Z,3.17
2022-09-03T12:13:30.642Z,3.28
2022-09-03T12:16:26.376Z,2.97
2022-09-03T12:18:58.125Z,3.35
2022-09-03T12:21:27.478Z,3.47
2022-09-03T12:23:58.522Z,3.20
2022-09-03T12:26:28.303Z,2.42
2022-09-03T12:28:58.202Z,3.08
2022-09-03T12:31:30.315Z,2.22
2022-09-03T12:34:02.018Z,2.33
2022-09-03T12:36:39.411Z,2.53
2022-09-03T12:39:12.645Z,2.47
2022-09-03T12:41:55.891Z,2.47
2022-09-03T12:44:28.310Z,2.08
2022-09-03T12:49:58.752Z,1.90
2022-09-03T12:52:29.515Z,2.30
2022-09-03T12:55:01.270Z,2.00
2022-09-03T12:57:34.608Z,2.63
2022-09-03T13:00:07.673Z,2.58
2022-09-03T13:02:42.826Z,2.47
2022-09-03T13:05:15.526Z,2.72
2022-09-03T13:07:51.408Z,2.22
2022-09-03T13:10:27.862Z,2.10
2022-09-03T13:13:01.380Z,2.20
2022-09-03T13:15:30.816Z,2.25
2022-09-03T13:18:20.799Z,1.70
2022-09-03T13:21:04.816Z,1.50
2022-09-03T13:23:56.783Z,1.30
2022-09-03T13:26:34.770Z,1.27
2022-09-03T13:29:25.410Z,1.30
2022-09-03T13:31:57.074Z,1.33
2022-09-03T13:34:33.129Z,1.50
2022-09-03T13:37:12.922Z,1.25
2022-09-03T13:39:50.789Z,2.00
2022-09-03T13:42:24.654Z,1.60
2022-09-03T13:44:58.240Z,1.45
2022-09-03T13:47:33.235Z,1.50
2022-09-03T13:50:24.556Z,1.50
2022-09-03T13:52:59.330Z,1.27
2022-09-03T13:55:34.526Z,1.70
2022-09-03T13:58:06.183Z,1.30
2022-09-03T14:00:39.470Z,1.60
2022-09-03T14:03:16.130Z,1.63
2022-09-03T14:06:06.402Z,1.50
2022-09-03T14:08:54.271Z,1.60
2022-09-03T14:11:30.672Z,1.55
2022-09-03T14:14:10.675Z,1.70
2022-09-03T14:16:45.746Z,1.77
2022-09-03T14:19:18.297Z,1.70
2022-09-03T14:21:52.476Z,1.98
2022-09-03T14:24:27.486Z,1.60
2022-09-03T14:26:57.431Z,1.42
2022-09-03T14:29:28.902Z,2.00
2022-09-03T14:32:26.758Z,1.75
2022-09-03T14:35:11.226Z,1.80
2022-09-03T14:38:32.886Z,1.80
2022-09-03T14:41:09.669Z,1.73
2022-09-03T14:44:04.474Z,1.70
2022-09-03T14:46:43.598Z,1.88
2022-09-03T14:49:34.007Z,2.17
2022-09-03T14:52:17.464Z,2.35
2022-09-03T14:55:07.603Z,1.65
2022-09-03T14:57:57.056Z,1.83
2022-09-03T15:00:34.286Z,1.88
2022-09-03T15:03:28.905Z,1.87
2022-09-03T15:06:08.383Z,1.55
2022-09-03T15:08:57.417Z,2.15
2022-09-03T15:11:32.647Z,1.85
2022-09-03T15:14:09.900Z,2.10
2022-09-03T15:16:51.838Z,1.70
2022-09-03T15:19:44.708Z,2.17
2022-09-03T15:22:24.328Z,1.63
2022-09-03T15:24:57.200Z,1.75
2022-09-03T15:27:42.373Z,2.00
2022-09-03T15:30:12.729Z,1.90
2022-09-03T15:32:58.738Z,1.60
2022-09-03T15:35:43.624Z,1.77
2022-09-03T15:38:20.155Z,1.83
2022-09-03T15:40:54.138Z,1.95
2022-09-03T15:43:27.493Z,1.90
2022-09-03T15:45:58.636Z,1.70
2022-09-03T15:48:39.661Z,1.90
2022-09-03T15:51:17.219Z,1.90
2022-09-03T15:53:53.352Z,1.98
2022-09-03T15:56:26.450Z,1.85
2022-09-03T15:59:03.780Z,2.15
2022-09-03T16:01:40.981Z,1.77
2022-09-03T16:04:34.852Z,2.15
2022-09-03T16:07:08.736Z,1.65
2022-09-03T16:10:01.957Z,2.30
2022-09-03T16:12:40.390Z,2.00
2022-09-03T16:15:15.420Z,1.90
2022-09-03T16:17:56.904Z,1.80
2022-09-03T16:20:33.274Z,1.70
2022-09-03T16:23:06.794Z,1.90
2022-09-03T16:25:45.889Z,1.70
2022-09-03T16:28:18.286Z,2.33
2022-09-03T16:31:05.090Z,1.80
2022-09-03T16:33:40.541Z,1.85
2022-09-03T16:36:24.126Z,2.25
2022-09-03T16:39:00.615Z,1.90
2022-09-03T16:41:35.371Z,2.00
2022-09-03T16:44:11.943Z,2.28
2022-09-03T16:46:49.670Z,2.13
2022-09-03T16:49:28.990Z,2.00
2022-09-03T16:52:04.810Z,2.00
2022-09-03T16:54:55.985Z,1.90
2022-09-03T16:57:34.257Z,2.20
2022-09-03T17:00:14.641Z,1.70
2022-09-03T17:03:08.508Z,1.70
2022-09-03T17:06:05.595Z,1.70
2022-09-03T17:08:39.883Z,1.63
2022-09-03T17:11:20.199Z,1.60
2022-09-03T17:14:00.349Z,2.00
2022-09-03T17:16:40.851Z,1.98
2022-09-03T17:19:16.423Z,1.90
2022-09-03T17:21:51.339Z,2.22
2022-09-03T17:24:38.969Z,2.17
2022-09-03T17:27:23.426Z,1.90
2022-09-03T17:30:08.008Z,1.92
2022-09-03T17:33:05.213Z,2.00
2022-09-03T17:35:42.811Z,2.78
2022-09-03T17:38:28.058Z,2.10
2022-09-03T17:41:06.085Z,2.10
2022-09-03T17:43:50.000Z,1.92
2022-09-03T17:46:30.750Z,2.30
2022-09-03T17:49:01.022Z,2.53
2022-09-03T17:51:36.990Z,2.47
2022-09-03T17:54:13.278Z,2.30
2022-09-03T17:56:51.549Z,2.28
2022-09-03T17:59:29.448Z,2.55
2022-09-03T18:02:04.530Z,2.92
2022-09-03T18:04:44.747Z,2.67
2022-09-03T18:07:23.510Z,3.30
2022-09-03T18:10:02.084Z,3.75
2022-09-03T18:12:40.355Z,2.35
2022-09-03T18:15:14.381Z,2.72
2022-09-03T18:17:49.562Z,3.00
2022-09-03T18:20:35.309Z,2.90
2022-09-03T18:23:26.639Z,2.78
2022-09-03T18:26:16.380Z,3.05
2022-09-03T18:29:07.996Z,3.05
2022-09-03T18:31:53.677Z,3.00
2022-09-03T18:34:45.195Z,3.67
2022-09-03T18:37:30.706Z,3.53
2022-09-03T18:40:17.273Z,3.08
2022-09-03T18:43:14.374Z,3.30
2022-09-03T18:46:46.289Z,3.60
2022-09-03T18:49:21.279Z,3.65
2022-09-03T18:52:16.898Z,3.33
2022-09-03T18:55:20.102Z,3.30
2022-09-03T18:58:22.080Z,3.17
2022-09-03T19:01:18.185Z,3.33
2022-09-03T19:04:15.251Z,3.65
2022-09-03T19:07:10.464Z,3.50
2022-09-03T19:10:06.334Z,3.95
2022-09-03T19:13:04.893Z,2.90
2022-09-03T19:16:03.777Z,3.97
2022-09-03T19:19:05.329Z,4.40
2022-09-03T19:21:59.830Z,4.22
2022-09-03T19:24:49.282Z,3.88
2022-09-03T19:27:59.266Z,3.90
2022-09-03T19:30:51.799Z,3.85
2022-09-03T19:33:47.946Z,3.58
2022-09-03T19:36:40.768Z,3.67
2022-09-03T19:39:42.051Z,3.90
2022-09-03T19:42:37.455Z,3.10
2022-09-03T19:45:31.666Z,3.42
2022-09-03T19:48:27.781Z,3.30
2022-09-03T19:51:23.091Z,3.83
2022-09-03T19:54:10.347Z,3.70
2022-09-03T19:56:57.116Z,2.97
2022-09-03T19:59:46.948Z,2.80
2022-09-03T20:02:32.492Z,3.00
2022-09-03T20:05:20.272Z,2.70
2022-09-03T20:08:13.213Z,2.50
2022-09-03T20:10:44.150Z,2.50
2022-09-03T20:13:14.681Z,3.53
2022-09-03T20:15:54.297Z,3.53
2022-09-03T20:18:32.226Z,3.10
2022-09-03T20:21:11.380Z,3.60
2022-09-03T20:23:49.906Z,3.08
2022-09-03T20:26:41.792Z,3.60
2022-09-03T20:29:43.152Z,3.10
2022-09-03T20:32:16.540Z,3.47
2022-09-03T20:34:51.907Z,3.83
2022-09-03T20:37:29.232Z,3.33
2022-09-03T20:40:17.410Z,3.97
2022-09-03T20:43:01.990Z,3.83
2022-09-03T20:45:39.159Z,3.47
2022-09-03T20:48:17.376Z,3.67
2022-09-03T20:50:56.543Z,3.72
2022-09-03T20:53:48.844Z,4.32
2022-09-03T20:56:24.834Z,3.20
2022-09-03T20:58:59.550Z,3.45
2022-09-03T21:01:33.819Z,3.88
2022-09-03T21:04:21.928Z,3.50
2022-09-03T21:06:57.104Z,3.78
2022-09-03T21:09:34.493Z,4.53
2022-09-03T21:12:10.241Z,4.07
2022-09-03T21:14:42.256Z,4.10
2022-09-03T21:17:25.032Z,3.75
2022-09-03T21:20:03.854Z,4.07
2022-09-03T21:22:41.267Z,4.28
2022-09-03T21:25:14.125Z,3.78
2022-09-03T21:27:49.469Z,3.35
2022-09-03T21:30:20.810Z,2.92
2022-09-03T21:32:52.654Z,3.17
2022-09-03T21:35:28.433Z,3.65
2022-09-03T21:38:00.367Z,3.60
2022-09-03T21:40:31.217Z,3.53
2022-09-03T21:43:11.405Z,3.53
2022-09-03T21:45:45.449Z,3.40
2022-09-03T21:48:18.147Z,3.78
2022-09-03T21:50:54.960Z,3.67
2022-09-03T21:53:31.337Z,4.30
2022-09-03T21:56:32.799Z,3.15
2022-09-03T21:59:11.220Z,3.65
2022-09-03T22:01:50.940Z,3.50
2022-09-03T22:04:19.036Z,3.40
2022-09-03T22:06:56.216Z,3.90
2022-09-03T22:09:29.977Z,3.55
2022-09-03T22:12:06.868Z,3.80
2022-09-03T22:14:43.365Z,4.05
2022-09-03T22:17:16.798Z,3.63
2022-09-03T22:19:45.609Z,3.90
2022-09-03T22:22:19.763Z,3.70
2022-09-03T22:24:53.668Z,3.20
2022-09-03T22:27:30.990Z,3.25
2022-09-03T22:30:07.195Z,4.13
2022-09-03T22:32:49.661Z,3.17
2022-09-03T22:35:42.681Z,3.78
2022-09-03T22:38:28.513Z,3.45
2022-09-03T22:41:05.925Z,3.63
2022-09-03T22:43:37.589Z,3.85
2022-09-03T22:46:10.606Z,4.13
2022-09-03T22:48:53.659Z,4.40
2022-09-03T22:51:22.173Z,4.68
2022-09-03T22:54:02.558Z,4.75
2022-09-03T22:56:34.496Z,4.97
2022-09-03T22:59:07.091Z,4.38
2022-09-03T23:01:41.949Z,3.97
2022-09-03T23:04:18.673Z,4.30
2022-09-03T23:06:52.724Z,3.72
2022-09-03T23:09:24.097Z,3.97
2022-09-03T23:11:57.731Z,4.45
2022-09-03T23:14:29.574Z,6.20
2022-09-03T23:17:04.416Z,5.57
2022-09-03T23:19:40.343Z,4.60
2022-09-03T23:22:13.189Z,4.82
2022-09-03T23:24:45.416Z,5.47
2022-09-03T23:27:18.778Z,5.57
2022-09-03T23:29:51.344Z,5.35
2022-09-03T23:32:20.639Z,5.22
2022-09-03T23:34:48.816Z,4.60
2022-09-03T23:37:34.060Z,4.63
2022-09-03T23:40:40.408Z,4.50
2022-09-03T23:43:48.496Z,4.90
2022-09-03T23:46:20.888Z,4.72
2022-09-03T23:49:30.068Z,5.13
2022-09-03T23:52:13.828Z,5.77
2022-09-03T23:54:48.253Z,4.75
2022-09-03T23:57:24.583Z,4.93
